Time;durP1;ratioP1;P1;durP2;ratioP2;P2;SDS_P1;SDS_P2;PMS_P1;PMS_P2;Temp;Humidity;BMP_temperature;BMP_pressure;BME280_temperature;BME280_humidity;BME280_pressure;Samples;Min_cycle;Max_cycle;Signal;HPM_P1;HPM_P2
2021/01/21 00:01:56;;;;;;;0.45;0.43;;;10.10;96.70;;;14.16;79.33;98957.03;5050950;27;97251;-71
2021/01/21 00:04:25;;;;;;;0.28;0.28;;;10.10;96.60;;;14.17;79.58;98948.59;5048974;27;96733;-71
2021/01/21 00:06:52;;;;;;;0.25;0.25;;;10.10;96.60;;;14.23;79.10;98936.34;5050992;27;96787;-71
2021/01/21 00:09:20;;;;;;;1.08;0.73;;;10.10;96.60;;;14.19;79.62;98935.53;5045310;27;97763;-71
2021/01/21 00:11:48;;;;;;;0.10;0.10;;;10.10;96.60;;;14.13;79.42;98936.97;5062385;27;96772;-71
2021/01/21 00:14:16;;;;;;;0.00;0.00;;;10.00;96.60;;;14.13;79.73;98936.19;5022146;28;96716;-71
2021/01/21 00:16:43;;;;;;;0.32;0.30;;;10.00;96.60;;;14.15;79.27;98934.72;5051413;27;96943;-71
2021/01/21 00:19:11;;;;;;;0.10;0.10;;;10.00;96.60;;;14.16;79.09;98920.09;5056282;27;97935;-71
2021/01/21 00:21:40;;;;;;;0.47;0.38;;;10.10;96.60;;;14.10;79.27;98910.00;5046548;27;97740;-71
2021/01/21 00:24:08;;;;;;;0.68;0.68;;;10.00;96.50;;;14.06;79.51;98899.16;5041819;27;96993;-71
2021/01/21 00:26:36;;;;;;;1.30;0.43;;;10.00;96.50;;;14.11;78.59;98881.91;5026900;27;96933;-71
2021/01/21 00:29:05;;;;;;;3.03;1.25;;;10.00;96.50;;;14.13;78.70;98888.50;5040997;27;96967;-71
2021/01/21 00:31:33;;;;;;;1.13;0.43;;;10.00;96.50;;;14.13;78.62;98875.03;5043542;27;96730;-71
2021/01/21 00:34:02;;;;;;;1.00;0.52;;;10.00;96.50;;;14.11;78.57;98863.84;5049387;27;96768;-71
2021/01/21 00:36:31;;;;;;;0.20;0.20;;;10.00;96.50;;;14.11;79.10;98868.44;5076847;27;96832;-71
2021/01/21 00:38:59;;;;;;;1.95;0.93;;;10.00;96.50;;;14.20;79.09;98864.34;5040102;27;98352;-71
2021/01/21 00:41:31;;;;;;;0.47;0.30;;;10.00;96.50;;;14.14;79.17;98846.16;5048129;27;96877;-71
2021/01/21 00:43:59;;;;;;;1.95;1.75;;;10.00;96.50;;;14.13;78.67;98839.22;5045798;27;96855;-71
2021/01/21 00:46:26;;;;;;;0.15;0.15;;;10.00;96.80;;;14.05;79.18;98835.69;5041717;27;97167;-71
2021/01/21 00:48:54;;;;;;;0.10;0.10;;;10.00;96.50;;;13.97;78.92;98829.81;5051872;27;96732;-71
2021/01/21 00:51:23;;;;;;;0.20;0.20;;;9.90;96.40;;;14.00;78.82;98829.09;5044544;27;98851;-71
2021/01/21 00:53:51;;;;;;;0.35;0.35;;;9.90;96.40;;;13.99;78.36;98822.16;5045757;27;97087;-71
2021/01/21 00:56:21;;;;;;;0.63;0.28;;;9.90;96.30;;;13.99;78.54;98830.22;5061086;27;97372;-71
2021/01/21 00:58:50;;;;;;;1.08;0.43;;;9.80;96.30;;;14.04;78.73;98815.28;5049888;27;99156;-71
2021/01/21 01:01:18;;;;;;;1.10;0.52;;;9.80;96.30;;;14.09;79.11;98806.09;5046628;27;97640;-71
2021/01/21 01:03:48;;;;;;;0.10;0.10;;;9.80;96.40;;;14.07;79.19;98803.00;5055270;27;96829;-71
2021/01/21 01:06:16;;;;;;;0.55;0.55;;;9.80;96.40;;;14.04;78.83;98785.66;5055781;27;96909;-71
2021/01/21 01:08:45;;;;;;;0.70;0.40;;;9.90;96.40;;;14.10;78.47;98791.50;5047996;27;99224;-71
2021/01/21 01:11:12;;;;;;;1.02;0.73;;;9.80;96.40;;;14.09;77.81;98774.53;5050260;27;98429;-71
2021/01/21 01:13:41;;;;;;;1.08;0.20;;;9.80;96.30;;;14.08;78.41;98775.69;5072524;27;96665;-71
2021/01/21 01:16:12;;;;;;;0.65;0.35;;;9.80;96.40;;;14.08;78.55;98766.84;5078326;27;97048;-71
2021/01/21 01:18:50;;;;;;;0.20;0.20;;;9.80;96.40;;;14.10;78.28;98762.63;5065709;27;97923;-71
2021/01/21 01:21:18;;;;;;;9.73;0.60;;;9.80;96.40;;;14.11;78.49;98760.72;5051482;27;97676;-71
2021/01/21 01:23:46;;;;;;;0.10;0.10;;;9.80;96.30;;;14.12;78.24;98740.72;5046314;27;97106;-71
2021/01/21 01:26:13;;;;;;;1.23;1.05;;;9.80;96.30;;;14.11;78.36;98729.19;5047406;27;96882;-71
2021/01/21 01:28:43;;;;;;;2.38;0.75;;;9.80;96.30;;;14.11;78.89;98723.81;5042453;27;97296;-71
2021/01/21 01:31:11;;;;;;;0.08;0.08;;;9.80;96.30;;;14.05;78.46;98719.13;5046014;27;98702;-71
2021/01/21 01:33:41;;;;;;;0.30;0.30;;;9.80;96.30;;;14.03;78.46;98697.94;5044616;27;96869;-71
2021/01/21 01:36:09;;;;;;;0.35;0.10;;;9.80;96.30;;;14.15;77.97;98694.22;5034759;27;96855;-71
2021/01/21 01:38:38;;;;;;;0.38;0.38;;;9.80;96.30;;;14.25;78.42;98696.19;5041162;27;98140;-71
2021/01/21 01:41:27;;;;;;;0.47;0.47;;;9.90;96.40;;;14.17;78.28;98684.63;5047898;27;97767;-71
2021/01/21 01:43:56;;;;;;;9.95;0.70;;;9.90;96.40;;;14.19;78.80;98682.34;5042926;27;96778;-71
2021/01/21 01:46:27;;;;;;;0.13;0.13;;;9.90;96.40;;;14.26;78.74;98673.50;5051998;27;97267;-71
2021/01/21 01:48:58;;;;;;;2.78;0.90;;;9.90;96.40;;;14.20;78.45;98653.47;5044429;27;97984;-71
2021/01/21 01:51:31;;;;;;;0.03;0.03;;;9.90;96.40;;;14.23;78.98;98652.72;5048848;27;96822;-71
2021/01/21 01:54:00;;;;;;;0.25;0.25;;;10.00;96.40;;;14.24;78.93;98641.56;5041165;27;96702;-71
2021/01/21 01:56:36;;;;;;;1.35;1.08;;;10.00;96.40;;;14.28;79.02;98636.97;5048583;27;96979;-71
2021/01/21 01:59:13;;;;;;;0.25;0.22;;;10.00;96.40;;;14.28;79.03;98626.19;5064057;27;98092;-71
2021/01/21 02:01:50;;;;;;;0.20;0.20;;;10.00;96.40;;;14.29;78.86;98616.22;5044589;27;97629;-71
2021/01/21 02:04:23;;;;;;;0.63;0.63;;;10.10;96.40;;;14.26;78.82;98612.34;5051529;27;97218;-71
2021/01/21 02:07:16;;;;;;;0.10;0.10;;;10.10;96.40;;;14.27;79.07;98599.66;5076368;27;96675;-71
2021/01/21 02:09:55;;;;;;;0.10;0.10;;;10.10;96.40;;;14.28;78.68;98588.50;5040821;27;97860;-71
2021/01/21 02:12:44;;;;;;;1.38;0.68;;;10.10;96.30;;;14.35;79.19;98593.16;5044667;27;98128;-71
2021/01/21 02:15:40;;;;;;;0.40;0.40;;;10.20;96.40;;;14.33;78.76;98592.75;5059557;27;97001;-71
2021/01/21 02:18:15;;;;;;;0.00;0.00;;;10.10;96.30;;;14.24;78.94;98586.91;5050694;27;97901;-71
2021/01/21 02:21:57;;;;;;;0.10;0.10;;;10.20;96.30;;;14.32;78.99;98575.81;5028405;27;98037;-71
2021/01/21 02:25:21;;;;;;;0.05;0.05;;;10.20;96.30;;;14.33;79.28;98563.88;5066392;27;98644;-71
2021/01/21 02:28:34;;;;;;;1.98;0.93;;;10.20;96.30;;;14.39;78.79;98556.22;5015137;27;96664;-71
2021/01/21 02:31:27;;;;;;;1.38;0.30;;;10.20;96.30;;;14.52;79.36;98570.88;5057669;27;96885;-72
2021/01/21 02:34:05;;;;;;;0.03;0.03;;;10.20;96.30;;;14.55;79.05;98543.16;5073818;27;97909;-71
2021/01/21 02:36:40;;;;;;;0.17;0.17;;;10.30;96.40;;;14.58;78.45;98540.50;5075709;27;96833;-71
2021/01/21 02:39:22;;;;;;;1.75;0.85;;;10.30;96.30;;;14.69;79.22;98532.44;5044167;27;96910;-71
2021/01/21 02:41:56;;;;;;;0.15;0.15;;;10.30;96.30;;;14.83;78.31;98533.25;5058622;27;97241;-71
2021/01/21 02:44:29;;;;;;;6.03;0.30;;;10.40;96.40;;;15.03;78.83;98533.66;5054444;27;96799;-71
2021/01/21 02:46:58;;;;;;;0.30;0.30;;;10.50;96.40;;;15.01;78.47;98512.50;5031869;27;100217;-71
2021/01/21 02:49:32;;;;;;;1.48;0.45;;;10.50;96.40;;;14.96;78.82;98515.53;5046037;27;96872;-71
2021/01/21 02:52:12;;;;;;;0.45;0.45;;;10.60;96.30;;;15.00;79.31;98520.94;5050119;27;96890;-71
2021/01/21 02:55:02;;;;;;;0.25;0.25;;;10.60;96.20;;;15.03;79.35;98507.47;5065175;27;97864;-71
2021/01/21 02:57:43;;;;;;;0.38;0.38;;;10.70;96.50;;;15.05;79.65;98520.56;5065730;27;97614;-71
2021/01/21 03:00:13;;;;;;;2.63;0.32;;;10.70;96.30;;;15.11;78.66;98513.63;5042524;27;96774;-71
2021/01/21 03:02:48;;;;;;;0.10;0.10;;;10.80;96.30;;;15.16;78.65;98497.06;5040656;27;96966;-71
2021/01/21 03:05:20;;;;;;;0.25;0.25;;;10.80;96.30;;;15.11;79.32;98483.97;5038769;27;97875;-71
2021/01/21 03:07:49;;;;;;;1.90;0.28;;;10.80;96.30;;;15.01;79.09;98487.44;5038316;27;96944;-71
2021/01/21 03:10:22;;;;;;;1.48;0.88;;;10.80;96.20;;;14.95;79.06;98487.03;5030919;27;96761;-71
2021/01/21 03:12:55;;;;;;;2.28;0.28;;;10.80;96.20;;;15.00;78.66;98478.56;5051158;27;96854;-70
2021/01/21 03:15:25;;;;;;;0.20;0.20;;;10.80;96.10;;;15.02;78.29;98481.66;5054376;27;97882;-70
2021/01/21 03:18:07;;;;;;;5.38;0.50;;;10.70;96.10;;;15.08;79.10;98477.41;5043097;27;96883;-71
2021/01/21 03:20:38;;;;;;;2.10;1.05;;;10.70;96.10;;;15.20;77.90;98468.19;5062569;27;97367;-71
2021/01/21 03:23:09;;;;;;;0.20;0.20;;;10.80;96.20;;;15.24;77.87;98472.41;5073643;27;96861;-71
2021/01/21 03:25:44;;;;;;;0.63;0.38;;;10.80;96.20;;;15.23;78.98;98443.88;5052235;27;97299;-70
2021/01/21 03:28:15;;;;;;;7.18;0.35;;;10.80;96.20;;;15.24;78.64;98467.00;5051172;27;96760;-70
2021/01/21 03:30:45;;;;;;;0.40;0.40;;;10.80;96.20;;;15.22;78.53;98445.03;5050803;27;96800;-72
2021/01/21 03:33:13;;;;;;;0.20;0.20;;;10.80;96.20;;;15.23;78.54;98449.28;5059574;27;98402;-72
2021/01/21 03:35:47;;;;;;;2.22;0.65;;;10.80;96.20;;;15.24;79.27;98464.31;5046111;27;97739;-71
2021/01/21 03:38:19;;;;;;;0.20;0.20;;;10.80;96.20;;;15.33;79.02;98431.56;5053664;27;96780;-72
2021/01/21 03:41:10;;;;;;;0.13;0.13;;;10.90;96.30;;;15.27;78.80;98409.56;5053013;27;96704;-71
2021/01/21 03:43:40;;;;;;;0.15;0.15;;;10.90;96.30;;;15.27;78.77;98425.00;5045404;27;96732;-71
2021/01/21 03:46:15;;;;;;;0.00;0.00;;;11.00;96.30;;;15.25;79.39;98430.78;5064357;27;96932;-70
2021/01/21 03:48:43;;;;;;;0.00;0.00;;;10.90;96.20;;;15.29;78.25;98425.41;5041445;27;97112;-70
2021/01/21 03:51:32;;;;;;;0.40;0.30;;;10.90;96.20;;;15.45;78.99;98415.75;5048428;27;96681;-72
2021/01/21 03:54:23;;;;;;;0.10;0.10;;;10.90;96.20;;;15.42;78.57;98419.22;5035382;27;96994;-72
2021/01/21 03:56:52;;;;;;;1.23;0.50;;;11.00;96.30;;;15.39;78.31;98406.50;5077241;27;98831;-71
2021/01/21 03:59:21;;;;;;;0.52;0.47;;;11.00;96.30;;;15.36;78.49;98401.09;5041715;27;96694;-72
2021/01/21 04:01:54;;;;;;;0.10;0.10;;;10.90;96.20;;;15.28;77.68;98408.44;5042385;27;96790;-71
2021/01/21 04:04:23;;;;;;;0.20;0.20;;;10.90;96.20;;;15.28;78.58;98399.56;5055893;27;97224;-72
2021/01/21 04:06:52;;;;;;;0.15;0.15;;;10.90;96.20;;;15.24;78.57;98386.06;5042911;27;97933;-72
2021/01/21 04:09:30;;;;;;;0.15;0.15;;;10.90;96.20;;;15.19;79.26;98399.19;5062402;27;97661;-72
2021/01/21 04:12:16;;;;;;;0.95;0.43;;;10.90;96.20;;;15.25;78.24;98393.00;5046835;27;96846;-72
2021/01/21 04:14:44;;;;;;;0.63;0.63;;;10.90;96.30;;;15.27;78.58;98392.63;5041867;27;97477;-71
2021/01/21 04:17:13;;;;;;;3.88;0.75;;;10.90;96.30;;;15.31;79.40;98380.72;5053304;27;97226;-72
2021/01/21 04:19:43;;;;;;;0.45;0.10;;;11.00;96.30;;;15.35;78.86;98383.38;5061120;27;96685;-72
2021/01/21 04:22:12;;;;;;;0.30;0.30;;;11.00;96.30;;;15.35;78.39;98389.56;5040815;27;96697;-72
2021/01/21 04:24:41;;;;;;;0.20;0.20;;;11.00;96.30;;;15.35;78.52;98381.47;5059283;27;97216;-72
2021/01/21 04:27:18;;;;;;;0.30;0.30;;;11.00;96.30;;;15.32;79.54;98394.94;5044648;27;97847;-72
2021/01/21 04:29:50;;;;;;;0.30;0.30;;;11.00;96.30;;;15.28;78.88;98394.94;5046111;27;98161;-71
2021/01/21 04:32:19;;;;;;;0.10;0.10;;;11.00;96.30;;;15.24;78.81;98375.28;5076024;27;96911;-71
2021/01/21 04:34:48;;;;;;;0.10;0.10;;;11.00;96.30;;;15.18;77.86;98374.13;5040457;27;96978;-71
2021/01/21 04:37:17;;;;;;;1.25;0.68;;;11.00;96.30;;;15.15;78.22;98393.78;5041716;27;96998;-71
2021/01/21 04:39:57;;;;;;;3.03;0.50;;;10.90;96.30;;;15.10;77.92;98396.88;5048596;27;98944;-71
2021/01/21 04:42:31;;;;;;;0.08;0.08;;;10.90;96.30;;;15.02;77.99;98391.88;5040279;27;96758;-71
2021/01/21 04:45:08;;;;;;;0.17;0.15;;;10.80;96.20;;;14.89;78.15;98401.53;5059520;27;96678;-71
2021/01/21 04:47:43;;;;;;;0.32;0.20;;;10.80;96.20;;;14.68;78.52;98410.38;5043699;27;97799;-71
2021/01/21 04:50:23;;;;;;;0.28;0.22;;;10.70;96.10;;;14.53;77.40;98395.34;5034242;27;97716;-71
2021/01/21 04:53:07;;;;;;;0.20;0.20;;;10.60;96.00;;;14.36;77.39;98395.34;5074441;27;96759;-70
2021/01/21 04:55:55;;;;;;;3.83;1.08;;;10.50;96.10;;;14.19;78.10;98383.38;5048975;27;96681;-70
2021/01/21 04:58:50;;;;;;;9.63;0.60;;;10.40;95.80;;;14.06;78.40;98401.00;5046123;27;97979;-70
2021/01/21 05:01:34;;;;;;;0.00;0.00;;;10.20;96.00;;;14.02;78.45;98404.06;5075229;27;96815;-70
2021/01/21 05:04:05;;;;;;;0.10;0.10;;;10.10;95.80;;;13.99;78.42;98419.06;5057239;27;96992;-70
2021/01/21 05:06:46;;;;;;;0.95;0.65;;;10.10;95.90;;;14.01;78.38;98620.59;5075784;27;97225;-70
2021/01/21 05:09:20;;;;;;;3.88;0.57;;;10.00;95.90;;;13.70;76.78;98658.81;5041319;27;97021;-70
2021/01/21 05:11:49;;;;;;;0.40;0.22;;;9.90;95.50;;;12.73;74.39;98656.63;5065963;27;98052;-70
2021/01/21 05:14:30;;;;;;;3.10;0.70;;;9.50;93.30;;;11.86;75.45;98653.50;5041405;27;96861;-71
2021/01/21 05:17:18;;;;;;;0.63;0.63;;;8.90;92.30;;;11.47;76.23;98646.69;5047301;27;97451;-71
2021/01/21 05:19:52;;;;;;;0.00;0.00;;;8.40;92.70;;;11.18;76.66;98644.66;5050178;27;96822;-71
2021/01/21 05:22:40;;;;;;;0.10;0.10;;;8.00;93.10;;;11.04;76.50;98632.91;5048122;27;97743;-70
2021/01/21 05:25:27;;;;;;;0.00;0.00;;;7.70;93.50;;;10.96;77.20;98633.91;5046808;27;96777;-71
2021/01/21 05:28:15;;;;;;;0.10;0.10;;;7.40;93.90;;;10.83;77.60;98627.13;5045796;27;96695;-71
2021/01/21 05:30:58;;;;;;;0.00;0.00;;;7.30;94.30;;;10.79;77.33;98638.88;5040100;27;96703;-71
2021/01/21 05:33:36;;;;;;;0.28;0.28;;;7.10;94.60;;;10.76;77.32;98639.59;5051673;27;97720;-71
2021/01/21 05:36:24;;;;;;;1.08;0.50;;;7.00;94.80;;;10.79;77.69;98628.19;5044339;27;96728;-71
2021/01/21 05:39:21;;;;;;;0.00;0.00;;;6.90;95.00;;;10.76;77.62;98636.94;5037568;27;97130;-71
2021/01/21 05:42:18;;;;;;;0.00;0.00;;;6.90;95.20;;;10.80;77.95;98654.63;5042044;27;97821;-71
2021/01/21 05:45:10;;;;;;;3.03;0.17;;;6.80;95.40;;;10.79;77.82;98684.44;5038868;27;97160;-71
2021/01/21 05:47:55;;;;;;;10.05;1.17;;;6.80;95.50;;;10.80;78.04;98702.84;5064966;27;96700;-71
2021/01/21 05:50:25;;;;;;;0.00;0.00;;;6.80;95.60;;;10.75;78.17;98688.94;5046414;27;96813;-71
2021/01/21 05:52:56;;;;;;;0.00;0.00;;;6.80;95.70;;;10.77;78.18;98643.84;5049457;27;97440;-71
2021/01/21 05:55:26;;;;;;;0.00;0.00;;;6.80;95.70;;;10.71;78.09;98683.53;5060199;27;96776;-71
2021/01/21 05:57:55;;;;;;;0.00;0.00;;;6.70;95.70;;;10.70;78.19;98737.44;5057296;27;96797;-71
2021/01/21 06:00:26;;;;;;;0.00;0.00;;;6.70;95.70;;;10.69;77.69;98717.13;5043761;27;96830;-71
2021/01/21 06:03:05;;;;;;;0.08;0.08;;;6.70;95.70;;;10.67;77.52;98722.06;5037143;27;98037;-71
2021/01/21 06:05:51;;;;;;;5.30;0.28;;;6.70;95.70;;;10.63;78.13;98734.59;5075103;27;97445;-72
2021/01/21 06:08:21;;;;;;;0.00;0.00;;;6.60;95.70;;;10.62;78.20;98743.78;5042736;27;96768;-72
2021/01/21 06:10:51;;;;;;;2.72;0.70;;;6.60;95.70;;;10.59;78.32;98736.44;5043379;27;97216;-72
2021/01/21 06:13:21;;;;;;;0.00;0.00;;;6.60;95.70;;;10.56;78.32;98723.75;5043827;27;97198;-72
2021/01/21 06:15:50;;;;;;;0.30;0.30;;;6.60;95.80;;;10.55;77.71;98732.91;5049808;27;97585;-72
2021/01/21 06:18:18;;;;;;;0.00;0.00;;;6.60;95.80;;;10.51;78.25;98742.75;5044527;27;96728;-72
2021/01/21 06:21:09;;;;;;;0.20;0.20;;;6.50;95.80;;;10.49;78.31;98748.47;5043618;27;96843;-72
2021/01/21 06:24:04;;;;;;;0.50;0.45;;;6.50;96.10;;;10.49;78.15;98775.22;5035150;27;96843;-72
2021/01/21 06:26:46;;;;;;;0.00;0.00;;;6.50;95.90;;;10.48;78.67;98775.56;5073779;27;97092;-72
2021/01/21 06:29:18;;;;;;;0.20;0.20;;;6.50;95.90;;;10.50;78.25;98790.16;5049674;27;97044;-72
2021/01/21 06:31:50;;;;;;;0.15;0.15;;;6.50;95.90;;;10.57;78.66;98794.94;5055019;27;98486;-72
2021/01/21 06:34:25;;;;;;;0.10;0.10;;;6.50;96.00;;;10.59;78.64;98798.03;5058665;27;97841;-72
2021/01/21 06:36:59;;;;;;;0.15;0.15;;;6.50;96.00;;;10.60;78.31;98805.69;5044986;27;97481;-72
2021/01/21 06:39:47;;;;;;;0.10;0.10;;;6.50;96.00;;;10.63;78.38;98818.38;5046080;27;96811;-73
2021/01/21 06:42:37;;;;;;;0.47;0.47;;;6.50;96.00;;;10.65;79.13;98823.41;5037956;27;97293;-73
2021/01/21 06:45:08;;;;;;;20.92;0.38;;;6.50;96.10;;;10.72;78.71;98828.94;5042529;27;97787;-73
2021/01/21 06:47:36;;;;;;;0.47;0.08;;;6.50;96.10;;;10.69;78.84;98825.06;5043086;27;96811;-73
2021/01/21 06:50:08;;;;;;;0.73;0.73;;;6.60;96.10;;;10.73;78.10;98841.19;5043313;27;98214;-73
2021/01/21 06:52:39;;;;;;;7.05;0.55;;;6.50;96.00;;;10.68;77.55;98850.28;5049450;27;96638;-73
2021/01/21 06:55:10;;;;;;;0.10;0.10;;;6.50;96.00;;;10.64;77.99;98859.34;5044831;27;96851;-73
2021/01/21 06:57:45;;;;;;;2.13;0.40;;;6.50;96.00;;;10.57;78.02;98881.38;5059058;27;97700;-73
2021/01/21 07:00:37;;;;;;;0.68;0.68;;;6.50;96.00;;;10.51;78.14;98898.81;5044200;27;97631;-73
2021/01/21 07:03:06;;;;;;;0.10;0.10;;;6.40;95.90;;;10.44;78.63;98900.53;5041232;27;97633;-72
2021/01/21 07:05:35;;;;;;;7.10;0.40;;;6.50;96.00;;;10.55;78.71;98901.59;5044589;27;97358;-73
2021/01/21 07:08:07;;;;;;;0.00;0.00;;;6.50;96.00;;;10.63;78.76;98924.75;5030437;27;96769;-73
2021/01/21 07:10:42;;;;;;;0.30;0.30;;;6.50;96.00;;;10.63;78.92;98928.19;5040628;27;96824;-73
2021/01/21 07:13:15;;;;;;;0.00;0.00;;;6.50;96.00;;;10.64;78.19;98920.94;5043897;27;97001;-73
2021/01/21 07:15:50;;;;;;;;;;;6.50;96.00;;;10.56;78.56;98929.94;5025682;27;101030;-73
2021/01/21 07:18:22;;;;;;;21.98;0.75;;;6.50;96.00;;;10.58;78.83;98938.41;5041712;27;97749;-73
2021/01/21 07:21:13;;;;;;;0.00;0.00;;;6.50;96.00;;;10.54;78.56;98937.53;5033934;27;97189;-73
2021/01/21 07:23:47;;;;;;;0.10;0.10;;;6.50;96.00;;;10.56;78.83;98954.03;5037145;27;98533;-73
2021/01/21 07:26:31;;;;;;;4.95;2.83;;;6.50;96.00;;;10.59;78.21;98950.66;5043120;27;98148;-73
2021/01/21 07:29:10;;;;;;;0.00;0.00;;;6.50;95.90;;;10.56;77.89;98959.38;5035893;27;97881;-73
2021/01/21 07:32:11;;;;;;;6.55;0.20;;;6.40;95.90;;;10.55;77.98;98973.91;5060587;27;96859;-74
2021/01/21 07:34:47;;;;;;;0.10;0.10;;;6.40;95.90;;;10.50;78.37;98976.81;5034815;27;97746;-73
2021/01/21 07:37:27;;;;;;;0.00;0.00;;;6.40;95.80;;;10.48;78.26;98984.41;5042828;27;99449;-72
2021/01/21 07:40:03;;;;;;;0.57;0.15;;;6.40;95.80;;;10.52;78.13;98990.66;5049156;27;97895;-73
2021/01/21 07:42:52;;;;;;;1.92;0.28;;;6.40;95.80;;;10.53;78.23;98990.31;5039863;27;96902;-72
2021/01/21 07:45:29;;;;;;;0.20;0.20;;;6.30;95.80;;;10.63;78.13;98997.06;5047237;27;97382;-72
2021/01/21 07:48:19;;;;;;;0.10;0.10;;;6.40;95.80;;;10.71;77.54;99001.47;5046081;27;97443;-72
2021/01/21 07:50:48;;;;;;;1.30;0.63;;;6.30;95.80;;;10.71;77.57;99009.50;5041785;27;96736;-72
2021/01/21 07:53:23;;;;;;;0.10;0.10;;;6.40;95.80;;;10.70;77.57;99007.94;5044026;27;96626;-72
2021/01/21 07:55:53;;;;;;;1.98;0.28;;;6.40;95.90;;;10.69;78.09;99012.53;5040502;27;96734;-72
2021/01/21 07:58:34;;;;;;;0.10;0.10;;;6.40;95.80;;;10.71;78.14;99017.53;5046271;27;96780;-72
2021/01/21 08:01:08;;;;;;;0.82;0.22;;;6.40;95.90;;;10.81;77.79;99025.84;5038393;27;97781;-72
2021/01/21 08:03:41;;;;;;;0.20;0.20;;;6.40;95.90;;;10.80;77.67;99031.53;5039040;27;96734;-72
2021/01/21 08:06:16;;;;;;;0.52;0.50;;;6.40;95.80;;;10.84;77.01;99041.22;5041129;27;96864;-72
2021/01/21 08:08:47;;;;;;;0.28;0.28;;;6.50;95.80;;;10.88;77.41;99044.03;5046813;27;96858;-72
2021/01/21 08:11:17;;;;;;;6.28;0.65;;;6.50;95.80;;;10.95;77.60;99047.63;5053036;27;97714;-72
2021/01/21 08:13:47;;;;;;;4.97;0.77;;;6.50;95.70;;;11.04;77.23;99050.94;5074323;27;96846;-72
2021/01/21 08:16:17;;;;;;;0.10;0.10;;;6.60;95.70;;;10.96;77.33;99051.91;5051817;27;97390;-72
2021/01/21 08:18:49;;;;;;;0.30;0.30;;;6.60;95.70;;;10.90;77.22;99061.28;5059414;27;96788;-72
2021/01/21 08:21:25;;;;;;;0.80;0.77;;;6.60;95.60;;;10.91;77.09;99060.97;5060088;27;97568;-72
2021/01/21 08:23:55;;;;;;;25.55;0.85;;;6.60;95.60;;;10.92;77.26;99070.56;5062731;27;96641;-73
2021/01/21 08:26:25;;;;;;;12.65;1.80;;;6.60;95.50;;;11.04;76.85;99067.03;5040308;27;96750;-73
2021/01/21 08:28:53;;;;;;;3.92;2.22;;;6.60;95.50;;;11.07;76.58;99069.78;5048201;27;96842;-72
2021/01/21 08:31:34;;;;;;;3.65;0.40;;;6.70;95.70;;;10.94;76.77;99064.84;5056340;27;98089;-72
2021/01/21 08:34:12;;;;;;;0.38;0.10;;;6.70;95.40;;;10.88;77.19;99077.72;5040169;27;97453;-72
2021/01/21 08:36:40;;;;;;;12.50;0.22;;;6.60;95.30;;;10.89;76.53;99076.59;5045222;27;96983;-72
2021/01/21 08:39:11;;;;;;;0.08;0.08;;;6.70;95.30;;;10.89;76.82;99081.97;5039602;27;97862;-72
2021/01/21 08:41:44;;;;;;;0.20;0.20;;;6.70;95.30;;;10.89;77.16;99095.34;5049971;27;97669;-72
2021/01/21 08:44:16;;;;;;;16.75;0.50;;;6.60;95.20;;;10.97;77.32;99086.38;5044423;27;96675;-72
2021/01/21 08:46:58;;;;;;;29.23;3.13;;;6.70;95.30;;;11.05;76.86;99096.16;5041742;27;96922;-72
2021/01/21 08:49:34;;;;;;;3.13;1.23;;;6.70;95.20;;;11.08;76.31;99102.72;5042821;27;98116;-72
2021/01/21 08:52:09;;;;;;;0.20;0.20;;;6.70;95.20;;;10.86;77.63;99102.53;5050050;27;97397;-73
2021/01/21 08:54:52;;;;;;;0.40;0.40;;;6.70;95.20;;;10.80;77.64;99093.94;5051152;27;97021;-73
2021/01/21 08:57:22;;;;;;;0.55;0.28;;;6.70;95.20;;;10.82;77.75;99105.09;5041251;27;96847;-72
2021/01/21 08:59:50;;;;;;;0.20;0.20;;;6.70;95.20;;;10.87;77.37;99106.75;5046375;27;97808;-73
2021/01/21 09:02:41;;;;;;;7.80;2.08;;;6.70;95.20;;;11.03;77.09;99113.72;5042596;27;96679;-72
2021/01/21 09:05:13;;;;;;;0.30;0.30;;;6.80;95.20;;;11.18;77.25;99124.47;5052483;27;96709;-73
2021/01/21 09:07:40;;;;;;;0.70;0.70;;;6.80;95.20;;;11.34;77.08;99111.06;5042810;27;97162;-73
2021/01/21 09:10:15;;;;;;;0.10;0.10;;;7.00;95.20;;;11.47;76.25;99124.03;5040565;27;97774;-73
2021/01/21 09:12:43;;;;;;;6.70;0.75;;;7.10;95.10;;;11.47;76.68;99126.72;5045848;27;97684;-73
2021/01/21 09:15:14;;;;;;;0.98;0.20;;;7.10;95.00;;;11.52;76.17;99134.50;5043934;27;97210;-73
2021/01/21 09:17:42;;;;;;;0.20;0.20;;;7.10;95.00;;;11.54;76.74;99131.47;5031128;27;96858;-73
2021/01/21 09:20:24;;;;;;;8.35;1.40;;;7.10;94.90;;;11.53;76.20;99135.28;5042771;27;97167;-73
2021/01/21 09:23:14;;;;;;;1.30;0.77;;;7.10;95.00;;;11.51;76.63;99130.28;5038169;27;96786;-73
2021/01/21 09:25:42;;;;;;;0.08;0.08;;;7.10;95.00;;;11.50;76.96;99133.28;5021370;27;97482;-72
2021/01/21 09:28:13;;;;;;;4.80;1.08;;;7.10;95.00;;;11.49;76.98;99134.41;5050857;27;97100;-72
2021/01/21 09:30:41;;;;;;;0.32;0.28;;;7.10;95.00;;;11.44;77.18;99143.50;5035477;27;97783;-73
2021/01/21 09:33:10;;;;;;;3.53;0.77;;;7.20;95.00;;;11.46;76.66;99141.25;5047414;27;98119;-73
2021/01/21 09:35:41;;;;;;;0.43;0.43;;;7.10;95.10;;;11.49;77.35;99153.97;5045446;27;96729;-73
2021/01/21 09:38:09;;;;;;;0.63;0.63;;;7.20;95.10;;;11.49;76.53;99148.63;5045500;27;96645;-73
2021/01/21 09:40:38;;;;;;;0.22;0.22;;;7.20;95.20;;;11.56;76.44;99148.81;5045274;27;97762;-73
2021/01/21 09:43:06;;;;;;;0.10;0.10;;;7.20;95.20;;;11.72;76.81;99157.66;5037671;27;97898;-73
2021/01/21 09:45:34;;;;;;;0.10;0.10;;;7.30;95.20;;;11.82;76.75;99150.97;5036999;27;97138;-73
2021/01/21 09:48:05;;;;;;;0.08;0.08;;;7.30;95.20;;;11.99;76.57;99161.34;5038191;27;97322;-73
2021/01/21 09:50:33;;;;;;;0.10;0.10;;;7.40;95.20;;;12.24;76.54;99162.69;5034735;27;97808;-73
2021/01/21 09:53:02;;;;;;;0.40;0.40;;;7.50;95.20;;;12.40;76.28;99158.84;5047099;27;97152;-73
2021/01/21 09:55:31;;;;;;;0.10;0.10;;;7.70;95.10;;;12.64;75.18;99155.91;5043640;27;97454;-73
2021/01/21 09:58:02;;;;;;;0.40;0.40;;;7.80;95.00;;;12.81;75.11;99163.53;5040751;27;97142;-73
2021/01/21 10:00:31;;;;;;;1.70;0.63;;;7.90;94.90;;;12.66;75.03;99164.38;5043091;27;96715;-73
2021/01/21 10:02:58;;;;;;;4.28;1.20;;;8.00;94.70;;;12.71;75.61;99166.78;5044105;27;96957;-73
2021/01/21 10:05:33;;;;;;;0.95;0.55;;;8.10;94.70;;;12.56;76.27;99170.28;5039823;27;97372;-73
2021/01/21 10:08:06;;;;;;;17.38;0.95;;;8.10;94.60;;;12.53;76.10;99163.72;5031208;27;97352;-73
2021/01/21 10:10:34;;;;;;;0.20;0.20;;;8.10;94.60;;;12.76;75.80;99169.97;5040411;27;98003;-72
2021/01/21 10:13:04;;;;;;;3.63;0.50;;;8.20;94.70;;;13.04;75.40;99170.53;5046038;27;97706;-72
2021/01/21 10:15:31;;;;;;;2.05;0.40;;;8.40;94.80;;;13.25;75.50;99159.44;5044461;27;98548;-72
2021/01/21 10:17:59;;;;;;;0.10;0.10;;;8.50;94.80;;;14.03;73.23;99158.44;5042301;27;96998;-72
2021/01/21 10:20:30;;;;;;;3.30;1.10;;;8.90;94.80;;;14.47;72.52;99161.41;5037548;27;97295;-71
2021/01/21 10:22:57;;;;;;;0.22;0.13;;;9.30;94.60;;;15.03;71.55;99165.59;5043403;27;97816;-71
2021/01/21 10:25:26;;;;;;;0.10;0.10;;;9.70;94.30;;;15.08;70.98;99165.25;5049353;27;96789;-71
2021/01/21 10:27:54;;;;;;;22.65;1.45;;;10.00;93.80;;;14.70;72.60;99168.25;5037589;27;97067;-71
2021/01/21 10:30:23;;;;;;;11.30;0.50;;;10.00;93.40;;;14.48;73.51;99166.44;5054574;27;97418;-71
2021/01/21 10:32:51;;;;;;;0.52;0.52;;;9.90;93.30;;;14.34;74.68;99168.91;5042974;27;96724;-71
2021/01/21 10:35:21;;;;;;;0.10;0.10;;;9.90;93.30;;;14.16;74.38;99162.53;5037282;27;97882;-72
2021/01/21 10:37:48;;;;;;;1.58;0.43;;;9.80;93.30;;;13.98;75.18;99152.59;5027276;27;97231;-72
2021/01/21 10:40:17;;;;;;;0.68;0.57;;;9.60;93.40;;;13.77;75.83;99162.22;5046848;27;97349;-72
2021/01/21 10:42:45;;;;;;;0.10;0.10;;;9.50;93.60;;;13.64;76.10;99150.88;5048857;27;96767;-72
2021/01/21 10:45:13;;;;;;;1.45;0.35;;;9.50;93.70;;;13.87;76.02;99162.41;5045826;27;97169;-72
2021/01/21 10:47:41;;;;;;;3.85;0.60;;;9.40;94.00;;;13.68;76.48;99161.69;5040595;27;97017;-71
2021/01/21 10:50:11;;;;;;;0.75;0.55;;;9.40;94.00;;;13.70;76.52;99165.59;5015979;27;96981;-72
2021/01/21 10:52:39;;;;;;;0.10;0.10;;;9.40;94.10;;;13.71;76.46;99152.91;5042363;27;97724;-72
2021/01/21 10:55:08;;;;;;;1.55;0.35;;;9.40;94.10;;;13.63;76.48;99149.31;5046707;27;96863;-72